»·PEaware :: TEXAN15 KRND-KSKF

TEXAN15 :: KRND-KSKF

FLIGHT INFORMATION

Flight Status: Arrived
Operator: Unknown
More flights by this operator :: More flights under this callsign
Pilot: Indie I. (23336)
Aircraft: BEECH AIRCRAFT T-6A TEXAN
(TEX2)
More flights by this aircraft type
Origin: KRND Randolph AFB
United States
Destination: KSKF Lackland AFB Kelly Fld Annex
United States
More flights between these airports :: More routes between these airports
Route: KRND SAT BETTI GARYS KHYI CHURN SAT KSAT KSY KSKF
File this flight plan on PilotEdge
Remarks: +CW / appch practice
Altitude:
(Current/Filed)
5,000ft
Speed:
(Current/Filed)
200kts
Departed: 12-Mar-20 06:32 AM
Arrived: 12-Mar-20 07:38 AM
Distance/Time
Traveled:
18nm/1:06
Distance/Time
To Go:
Arrived

Flight Plot

Page will automatically refresh every two minutes.

Flight plan parsing failed; only flown route is shown


Map Options




Map Legend


Flown Route
Filed Route
Departure Airport
Arrival Airport
Navaid (VOR, NDB)
Fix

Horizontal Profiles

Position Reports

Time Latitude Longitude Heading Altitude Ground
Speed
12-Mar-20 06:26 29.534031 -98.290540 334 765ft 0kts
12-Mar-20 06:27 29.534033 -98.290541 334 765ft 0kts
12-Mar-20 06:28 29.534035 -98.290542 334 765ft 0kts
12-Mar-20 06:29 29.534736 -98.291821 275 765ft 0kts
12-Mar-20 06:30 29.534736 -98.291823 275 765ft 0kts
12-Mar-20 06:31 29.528237 -98.288742 150 777ft 119kts
12-Mar-20 06:32 29.486631 -98.290202 239 1864ft 228kts
12-Mar-20 06:33 29.523829 -98.333636 317 3544ft 198kts
12-Mar-20 06:34 29.560164 -98.370092 319 5087ft 206kts
12-Mar-20 06:36 29.605160 -98.421101 318 5041ft 215kts
12-Mar-20 06:37 29.649700 -98.469561 323 5299ft 234kts
12-Mar-20 06:38 29.680081 -98.430124 88 5069ft 223kts
12-Mar-20 06:39 29.714564 -98.373420 44 5085ft 221kts
12-Mar-20 06:40 29.755497 -98.320289 49 5060ft 223kts
12-Mar-20 06:41 29.795684 -98.265946 49 5046ft 222kts
12-Mar-20 06:42 29.838605 -98.213848 43 4953ft 224kts
12-Mar-20 06:43 29.884785 -98.166191 45 4917ft 223kts
12-Mar-20 06:44 29.921543 -98.108665 55 4905ft 221kts
12-Mar-20 06:45 29.962718 -98.056368 68 4923ft 220kts
12-Mar-20 06:46 29.947478 -97.989653 112 4912ft 224kts
12-Mar-20 06:47 29.923224 -97.924342 114 4998ft 221kts
12-Mar-20 06:48 29.897151 -97.859809 115 5061ft 219kts
12-Mar-20 06:49 29.891126 -97.794988 48 5109ft 219kts
12-Mar-20 06:50 29.949822 -97.780791 3 5087ft 220kts
12-Mar-20 06:51 30.011665 -97.776384 352 5039ft 222kts
12-Mar-20 06:52 30.065994 -97.803168 335 3504ft 201kts
12-Mar-20 06:53 30.118002 -97.830746 325 3050ft 212kts
12-Mar-20 06:54 30.118547 -97.889810 234 3139ft 203kts
12-Mar-20 06:55 30.088452 -97.938320 234 3025ft 164kts
12-Mar-20 06:56 30.063021 -97.980484 236 3031ft 157kts
12-Mar-20 06:57 30.035683 -98.022603 202 2904ft 171kts
12-Mar-20 06:58 29.997623 -97.995887 133 2909ft 165kts
12-Mar-20 06:59 29.970837 -97.961442 130 3058ft 132kts
12-Mar-20 07:00 29.945878 -97.930512 132 2483ft 134kts
12-Mar-20 07:01 29.920419 -97.898641 133 1566ft 132kts
12-Mar-20 07:02 29.895896 -97.868599 133 606ft 113kts
12-Mar-20 07:03 29.862047 -97.850273 207 2063ft 204kts
12-Mar-20 07:04 29.823263 -97.904880 220 4034ft 230kts
12-Mar-20 07:05 29.767396 -97.943246 210 5018ft 227kts
12-Mar-20 07:06 29.714229 -97.980880 210 5034ft 220kts
12-Mar-20 07:07 29.661500 -98.018715 230 4878ft 220kts
12-Mar-20 07:08 29.652086 -98.085596 263 5100ft 221kts
12-Mar-20 07:09 29.648033 -98.156348 268 5071ft 221kts
12-Mar-20 07:10 29.645265 -98.227248 267 5009ft 223kts
12-Mar-20 07:11 29.645115 -98.297985 271 5029ft 220kts
12-Mar-20 07:12 29.649727 -98.368232 276 4427ft 214kts
12-Mar-20 07:13 29.653975 -98.433390 273 4036ft 214kts
12-Mar-20 07:14 29.658017 -98.502408 272 4024ft 221kts
12-Mar-20 07:15 29.661718 -98.572949 275 3941ft 222kts
12-Mar-20 07:16 29.638153 -98.623300 161 3568ft 206kts
12-Mar-20 07:17 29.615960 -98.577384 131 3348ft 146kts
12-Mar-20 07:18 29.587535 -98.544536 130 2586ft 130kts
12-Mar-20 07:19 29.564288 -98.513288 132 1789ft 133kts
12-Mar-20 07:20 29.541054 -98.483351 131 815ft 101kts
12-Mar-20 07:21 29.513987 -98.445875 129 2153ft 208kts
12-Mar-20 07:22 29.469371 -98.457899 233 4928ft 219kts
12-Mar-20 07:23 29.434869 -98.515732 237 5089ft 214kts
12-Mar-20 07:24 29.401668 -98.574414 234 4956ft 226kts
12-Mar-20 07:25 29.348691 -98.569630 127 5239ft 216kts
12-Mar-20 07:26 29.375426 -98.526919 2 5086ft 221kts
12-Mar-20 07:27 29.437343 -98.523080 5 5068ft 220kts
12-Mar-20 07:28 29.498457 -98.517523 2 5134ft 220kts
12-Mar-20 07:29 29.559057 -98.525496 344 5188ft 216kts
12-Mar-20 07:30 29.610012 -98.554121 297 5160ft 210kts
12-Mar-20 07:31 29.601522 -98.615630 254 5019ft 186kts
12-Mar-20 07:32 29.569424 -98.647443 175 4936ft 178kts
12-Mar-20 07:33 29.521325 -98.630718 164 4339ft 185kts
12-Mar-20 07:34 29.479351 -98.616741 161 2990ft 133kts
12-Mar-20 07:35 29.444180 -98.602902 162 1752ft 126kts
12-Mar-20 07:36 29.410013 -98.590653 162 988ft 120kts
12-Mar-20 07:37 29.387269 -98.582212 160 694ft 16kts

Navigation Log

Ident Type
Flight plan parsing failed, navigation log unavailable